createdAt,value
2022-08-09T00:02:30.059Z,3.25
2022-08-09T00:07:44.721Z,3.35
2022-08-09T00:12:47.091Z,4.10
2022-08-09T00:18:05.106Z,3.90
2022-08-09T00:23:55.531Z,3.60
2022-08-09T00:28:35.132Z,3.30
2022-08-09T00:33:49.079Z,3.63
2022-08-09T00:38:52.867Z,3.75
2022-08-09T00:44:14.738Z,3.70
2022-08-09T00:49:16.752Z,3.83
2022-08-09T00:54:23.126Z,4.03
2022-08-09T00:59:41.208Z,4.03
2022-08-09T01:05:22.088Z,3.80
2022-08-09T01:10:34.142Z,3.45
2022-08-09T01:15:51.609Z,3.72
2022-08-09T01:21:17.282Z,3.72
2022-08-09T01:26:55.880Z,3.78
2022-08-09T01:32:30.960Z,3.60
2022-08-09T01:37:42.802Z,3.60
2022-08-09T01:42:48.150Z,4.13
2022-08-09T01:47:51.952Z,4.20
2022-08-09T01:52:55.413Z,3.75
2022-08-09T01:58:00.220Z,4.10
2022-08-09T02:03:04.978Z,3.97
2022-08-09T02:08:41.161Z,3.78
2022-08-09T02:13:40.165Z,4.55
2022-08-09T02:18:47.664Z,4.80
2022-08-09T02:23:54.585Z,5.03
2022-08-09T02:29:01.780Z,4.10
2022-08-09T02:34:13.590Z,4.40
2022-08-09T02:39:39.844Z,6.13
2022-08-09T02:44:53.335Z,4.78
2022-08-09T02:50:09.652Z,4.18
2022-08-09T02:55:20.599Z,3.97
2022-08-09T03:00:25.548Z,4.22
2022-08-09T03:05:29.928Z,4.10
2022-08-09T03:10:37.884Z,4.07
2022-08-09T03:16:05.873Z,3.97
2022-08-09T03:21:06.377Z,5.53
2022-08-09T03:26:08.530Z,5.10
2022-08-09T03:31:21.437Z,4.72
2022-08-09T03:36:27.397Z,5.03
2022-08-09T03:41:44.978Z,5.32
2022-08-09T03:46:50.428Z,5.68
2022-08-09T03:52:00.376Z,6.10
2022-08-09T03:57:17.916Z,4.45
2022-08-09T04:02:30.127Z,4.60
2022-08-09T04:07:33.727Z,6.20
2022-08-09T04:12:54.820Z,4.72
2022-08-09T04:17:57.687Z,4.80
2022-08-09T04:22:59.754Z,5.53
2022-08-09T04:28:03.569Z,5.20
2022-08-09T04:33:05.650Z,5.40
2022-08-09T04:38:10.062Z,5.30
2022-08-09T04:43:12.253Z,5.50
2022-08-09T04:48:15.687Z,5.90
2022-08-09T04:53:17.551Z,5.53
2022-08-09T04:58:19.329Z,5.50
2022-08-09T05:03:40.057Z,5.88
2022-08-09T05:08:47.699Z,5.68
2022-08-09T05:13:49.951Z,5.82
2022-08-09T05:18:59.229Z,5.53
2022-08-09T05:24:04.064Z,4.82
2022-08-09T05:29:06.962Z,5.50
2022-08-09T05:34:18.858Z,5.10
2022-08-09T05:39:28.785Z,5.55
2022-08-09T05:44:32.606Z,5.30
2022-08-09T05:50:30.292Z,5.25
2022-08-09T05:54:58.041Z,5.10
2022-08-09T06:00:07.753Z,5.18
2022-08-09T06:05:56.858Z,5.18
2022-08-09T06:10:56.321Z,5.28
2022-08-09T06:15:59.934Z,4.60
2022-08-09T06:21:05.649Z,5.03
2022-08-09T06:26:07.526Z,4.60
2022-08-09T06:31:11.605Z,8.50
2022-08-09T06:36:13.732Z,6.97
2022-08-09T06:41:18.968Z,6.15
2022-08-09T06:46:40.236Z,5.07
2022-08-09T06:51:43.112Z,4.90
2022-08-09T06:56:47.761Z,5.03
2022-08-09T07:01:53.827Z,4.05
2022-08-09T07:07:00.100Z,4.97
2022-08-09T07:12:02.939Z,4.70
2022-08-09T07:17:04.789Z,4.10
2022-08-09T07:22:10.804Z,3.50
2022-08-09T07:27:26.946Z,3.47
2022-08-09T07:32:36.272Z,3.90
2022-08-09T07:37:43.428Z,3.58
2022-08-09T07:42:55.578Z,3.45
2022-08-09T07:48:00.849Z,3.63
2022-08-09T07:53:07.764Z,3.70
2022-08-09T07:58:13.326Z,3.67
2022-08-09T08:03:16.386Z,4.10
2022-08-09T08:09:00.215Z,3.65
2022-08-09T08:13:56.967Z,3.70
2022-08-09T08:19:03.249Z,3.30
2022-08-09T08:24:12.084Z,3.42
2022-08-09T08:29:27.428Z,3.47
2022-08-09T08:34:30.668Z,3.70
2022-08-09T08:39:40.007Z,3.10
2022-08-09T08:44:46.678Z,3.33
2022-08-09T08:49:49.513Z,3.65
2022-08-09T08:54:53.189Z,3.50
2022-08-09T08:59:57.353Z,3.03
2022-08-09T09:05:06.014Z,3.05
2022-08-09T09:10:12.394Z,3.53
2022-08-09T09:15:28.491Z,2.65
2022-08-09T09:20:35.850Z,3.05
2022-08-09T09:26:03.097Z,2.85
2022-08-09T09:31:17.560Z,3.10
2022-08-09T09:36:46.743Z,3.10
2022-08-09T09:41:56.992Z,3.00
2022-08-09T09:47:08.884Z,3.35
2022-08-09T09:52:16.759Z,3.13
2022-08-09T09:58:02.798Z,2.88
2022-08-09T10:02:56.034Z,3.10
2022-08-09T10:08:27.382Z,2.83
2022-08-09T10:13:46.050Z,3.10
2022-08-09T10:18:54.437Z,3.20
2022-08-09T10:23:57.509Z,3.72
2022-08-09T10:29:35.973Z,3.17
2022-08-09T10:34:33.838Z,3.17
2022-08-09T10:39:40.570Z,2.97
2022-08-09T10:45:01.317Z,3.78
2022-08-09T10:50:53.915Z,3.40
2022-08-09T10:56:25.362Z,3.40
2022-08-09T11:03:11.409Z,3.35
2022-08-09T11:06:59.742Z,3.15
2022-08-09T11:12:17.625Z,2.80
2022-08-09T11:17:22.725Z,2.97
2022-08-09T11:22:40.935Z,2.90
2022-08-09T11:28:05.380Z,3.10
2022-08-09T11:33:48.286Z,3.00
2022-08-09T11:39:03.440Z,2.80
2022-08-09T11:44:06.275Z,2.97
2022-08-09T11:49:08.048Z,3.08
2022-08-09T11:54:29.033Z,2.90
2022-08-09T11:59:35.243Z,3.15
2022-08-09T12:04:40.230Z,2.92
2022-08-09T12:09:50.597Z,2.67
2022-08-09T12:15:07.205Z,3.20
2022-08-09T12:20:22.882Z,2.90
2022-08-09T12:25:36.621Z,3.03
2022-08-09T12:30:39.721Z,3.00
2022-08-09T12:35:43.034Z,3.10
2022-08-09T12:40:46.921Z,2.97
2022-08-09T12:46:00.123Z,2.90
2022-08-09T12:51:03.938Z,3.33
2022-08-09T12:56:39.198Z,2.90
2022-08-09T13:01:38.700Z,3.10
2022-08-09T13:06:48.928Z,2.70
2022-08-09T13:12:01.477Z,2.67
2022-08-09T13:17:08.569Z,2.70
2022-08-09T13:22:36.784Z,2.65
2022-08-09T13:27:54.950Z,2.80
2022-08-09T13:32:58.023Z,2.50
2022-08-09T13:38:00.297Z,2.47
2022-08-09T13:43:05.305Z,2.63
2022-08-09T13:48:11.721Z,3.00
2022-08-09T13:53:16.715Z,2.40
2022-08-09T13:58:18.560Z,1.90
2022-08-09T14:04:05.307Z,2.47
2022-08-09T14:08:43.531Z,2.40
2022-08-09T14:14:22.764Z,2.30
2022-08-09T14:19:09.273Z,2.78
2022-08-09T14:24:18.582Z,2.80
2022-08-09T14:30:34.225Z,2.20
2022-08-09T14:34:56.836Z,2.30
2022-08-09T14:39:58.945Z,2.20
2022-08-09T14:46:39.536Z,2.15
2022-08-09T14:50:24.698Z,2.30
2022-08-09T14:55:29.077Z,2.40
2022-08-09T15:00:36.248Z,2.35
2022-08-09T15:05:39.711Z,2.30
2022-08-09T15:11:00.529Z,2.50
2022-08-09T15:16:03.997Z,2.30
2022-08-09T15:21:55.664Z,2.08
2022-08-09T15:26:32.046Z,2.63
2022-08-09T15:31:41.077Z,2.00
2022-08-09T15:36:47.922Z,2.30
2022-08-09T15:41:50.823Z,2.42
2022-08-09T15:46:52.701Z,2.38
2022-08-09T15:52:02.983Z,2.10
2022-08-09T15:57:08.438Z,2.88
2022-08-09T16:02:13.423Z,2.08
2022-08-09T16:07:15.577Z,2.35
2022-08-09T16:12:17.841Z,2.95
2022-08-09T16:17:22.107Z,2.28
2022-08-09T16:22:24.490Z,2.53
2022-08-09T16:27:29.700Z,2.65
2022-08-09T16:32:54.380Z,2.72
2022-08-09T16:37:56.939Z,2.20
2022-08-09T16:43:02.373Z,2.15
2022-08-09T16:48:43.281Z,2.67
2022-08-09T16:53:34.241Z,2.65
2022-08-09T16:58:37.078Z,2.20
2022-08-09T17:03:41.792Z,2.60
2022-08-09T17:09:04.870Z,2.50
2022-08-09T17:14:06.231Z,2.60
2022-08-09T17:19:10.557Z,2.55
2022-08-09T17:24:20.645Z,3.35
2022-08-09T17:29:31.641Z,2.67
2022-08-09T17:35:04.222Z,3.97
2022-08-09T17:40:01.603Z,4.20
2022-08-09T17:45:06.539Z,3.60
2022-08-09T17:50:35.888Z,3.20
2022-08-09T17:55:48.816Z,3.80
2022-08-09T18:00:56.435Z,3.08
2022-08-09T18:06:00.901Z,2.08
2022-08-09T18:11:04.553Z,2.42
2022-08-09T18:16:09.780Z,4.38
2022-08-09T18:21:19.172Z,2.50
2022-08-09T18:26:25.962Z,2.28
2022-08-09T18:31:51.252Z,2.70
2022-08-09T18:36:50.571Z,2.67
2022-08-09T18:41:55.843Z,2.40
2022-08-09T18:47:07.746Z,2.35
2022-08-09T18:52:12.891Z,2.72
2022-08-09T18:57:15.516Z,2.63
2022-08-09T19:02:18.607Z,2.30
2022-08-09T19:07:21.059Z,2.50
2022-08-09T19:12:24.552Z,2.70
2022-08-09T19:17:31.072Z,2.72
2022-08-09T19:22:33.651Z,2.72
2022-08-09T19:27:36.191Z,2.65
2022-08-09T19:32:38.829Z,2.40
2022-08-09T19:37:54.778Z,3.65
2022-08-09T19:42:59.489Z,2.75
2022-08-09T19:48:03.183Z,3.20
2022-08-09T19:53:05.057Z,3.13
2022-08-09T19:58:16.677Z,2.50
2022-08-09T20:04:16.644Z,2.30
2022-08-09T20:08:41.067Z,2.33
2022-08-09T20:13:45.731Z,3.25
2022-08-09T20:19:41.859Z,2.65
2022-08-09T20:24:19.442Z,2.20
2022-08-09T20:29:37.760Z,2.28
2022-08-09T20:34:40.428Z,2.05
2022-08-09T20:40:14.870Z,2.25
2022-08-09T20:45:57.162Z,2.10
2022-08-09T20:50:47.292Z,2.15
2022-08-09T20:56:00.642Z,2.00
2022-08-09T21:01:33.186Z,2.38
2022-08-09T21:06:28.019Z,2.70
2022-08-09T21:16:55.343Z,2.10
2022-08-09T21:21:58.268Z,1.85
2022-08-09T21:27:01.034Z,5.03
2022-08-09T21:32:33.204Z,16.17
2022-08-09T21:37:47.163Z,19.05
2022-08-09T21:42:58.859Z,21.38
2022-08-09T21:48:01.024Z,18.15
2022-08-09T21:53:03.913Z,23.13
2022-08-09T21:58:06.032Z,19.67
2022-08-09T22:03:19.184Z,10.63
2022-08-09T22:08:27.021Z,5.75
2022-08-09T22:13:33.973Z,5.70
2022-08-09T22:18:38.273Z,3.28
2022-08-09T22:23:59.549Z,2.72
2022-08-09T22:29:06.924Z,3.10
2022-08-09T22:34:14.547Z,2.97
2022-08-09T22:39:47.242Z,2.78
2022-08-09T22:44:38.985Z,2.83
2022-08-09T22:49:48.014Z,2.70
2022-08-09T22:54:53.947Z,2.70
2022-08-09T22:59:59.355Z,2.45
2022-08-09T23:05:01.397Z,2.90
2022-08-09T23:10:08.035Z,2.92
2022-08-09T23:15:10.644Z,2.80
2022-08-09T23:20:12.462Z,2.92
2022-08-09T23:25:14.369Z,3.15
2022-08-09T23:30:17.316Z,2.85
2022-08-09T23:35:19.161Z,3.10
2022-08-09T23:40:21.010Z,3.00
2022-08-09T23:45:36.639Z,3.08
2022-08-09T23:50:40.393Z,2.90
2022-08-09T23:55:48.352Z,3.35
